Time;durP1;ratioP1;P1;durP2;ratioP2;P2;SDS_P1;SDS_P2;PMS_P1;PMS_P2;Temp;Humidity;BMP_temperature;BMP_pressure;BME280_temperature;BME280_humidity;BME280_pressure;Samples;Min_cycle;Max_cycle;Signal;HPM_P1;HPM_P2
2022/11/20 00:01:50;;;;;;;5.27;4.00;;;2.80;99.90;;;;;;4130366;28;20189;-66
2022/11/20 00:03:53;;;;;;;7.27;4.40;;;2.70;99.90;;;;;;4129759;28;20250;-66
2022/11/20 00:05:54;;;;;;;6.53;4.43;;;2.60;99.90;;;;;;4129259;28;20885;-67
2022/11/20 00:07:54;;;;;;;6.90;4.77;;;2.50;99.90;;;;;;4129809;28;20516;-67
2022/11/20 00:09:55;;;;;;;7.10;4.70;;;2.50;99.90;;;;;;4129283;28;20190;-66
2022/11/20 00:11:55;;;;;;;7.80;5.37;;;2.50;99.90;;;;;;4129000;28;20183;-67
2022/11/20 00:13:59;;;;;;;7.97;5.10;;;2.40;99.90;;;;;;4129684;28;20695;-66
2022/11/20 00:16:03;;;;;;;8.57;5.07;;;2.50;99.90;;;;;;4112837;28;20187;-67
2022/11/20 00:18:04;;;;;;;8.77;5.40;;;2.60;99.90;;;;;;4129045;28;20433;-66
2022/11/20 00:20:05;;;;;;;8.87;4.83;;;2.50;99.90;;;;;;4130288;28;20427;-67
2022/11/20 00:22:06;;;;;;;7.73;4.87;;;2.50;99.90;;;;;;4130250;28;20182;-67
2022/11/20 00:24:10;;;;;;;11.63;6.23;;;2.50;99.90;;;;;;4129966;28;20973;-67
2022/11/20 00:26:14;;;;;;;10.07;5.87;;;2.50;99.90;;;;;;4129076;28;20180;-67
2022/11/20 00:28:15;;;;;;;10.37;6.30;;;2.40;99.90;;;;;;4129418;28;20492;-67
2022/11/20 00:30:15;;;;;;;9.07;5.97;;;2.40;99.90;;;;;;4128892;28;20915;-67
2022/11/20 00:32:16;;;;;;;9.53;5.70;;;2.30;99.90;;;;;;4113407;28;20664;-67
2022/11/20 00:34:17;;;;;;;13.17;5.80;;;2.30;99.90;;;;;;4128172;28;20218;-68
2022/11/20 00:36:24;;;;;;;9.03;5.30;;;2.30;99.90;;;;;;4113038;28;20184;-67
2022/11/20 00:38:25;;;;;;;8.03;5.47;;;2.30;99.90;;;;;;4133060;28;20182;-67
2022/11/20 00:40:25;;;;;;;6.87;4.17;;;2.40;99.90;;;;;;4123116;28;20858;-66
2022/11/20 00:42:26;;;;;;;8.20;4.80;;;2.40;99.90;;;;;;4115869;28;20526;-67
2022/11/20 00:44:27;;;;;;;8.20;4.60;;;2.40;99.90;;;;;;4114096;28;20242;-67
2022/11/20 00:46:28;;;;;;;6.87;4.20;;;2.40;99.90;;;;;;4114473;28;20209;-67
2022/11/20 00:48:28;;;;;;;6.87;4.70;;;2.30;99.90;;;;;;4128850;28;20700;-67
2022/11/20 00:50:29;;;;;;;6.90;3.87;;;2.30;99.90;;;;;;4112841;28;20477;-67
2022/11/20 00:52:30;;;;;;;6.13;3.90;;;2.30;99.90;;;;;;4114494;28;20195;-67
2022/11/20 00:54:30;;;;;;;6.50;4.37;;;2.30;99.90;;;;;;4128253;28;20216;-67
2022/11/20 00:56:31;;;;;;;5.17;3.83;;;2.30;99.90;;;;;;4114334;28;20191;-69
2022/11/20 00:58:35;;;;;;;6.63;4.73;;;2.40;99.90;;;;;;4114470;28;20188;-66
2022/11/20 01:00:35;;;;;;;7.17;4.47;;;2.30;99.90;;;;;;4112992;28;20187;-67
2022/11/20 01:02:36;;;;;;;6.00;4.10;;;2.40;99.90;;;;;;4128281;28;20558;-68
2022/11/20 01:04:37;;;;;;;6.03;3.90;;;2.40;99.90;;;;;;4114035;28;20287;-67
2022/11/20 01:06:39;;;;;;;5.60;3.47;;;2.40;99.90;;;;;;4114312;28;20200;-66
2022/11/20 01:08:40;;;;;;;5.77;4.33;;;2.40;99.90;;;;;;4114766;28;20195;-67
2022/11/20 01:10:41;;;;;;;4.30;3.40;;;2.50;99.90;;;;;;4117087;28;20485;-67
2022/11/20 01:12:41;;;;;;;6.30;3.80;;;2.50;99.90;;;;;;4116277;28;20179;-67
2022/11/20 01:14:42;;;;;;;4.03;3.20;;;2.50;99.90;;;;;;4131481;28;20224;-67
2022/11/20 01:16:49;;;;;;;4.53;3.47;;;2.50;99.90;;;;;;4115515;28;20235;-69
2022/11/20 01:18:53;;;;;;;4.67;3.27;;;2.60;99.90;;;;;;4116766;28;20180;-67
2022/11/20 01:20:54;;;;;;;5.73;3.43;;;2.70;99.90;;;;;;4115562;28;20516;-67
2022/11/20 01:22:55;;;;;;;4.80;3.00;;;2.70;99.90;;;;;;4130605;28;20435;-67
2022/11/20 01:24:55;;;;;;;4.00;3.30;;;2.80;99.90;;;;;;4116610;28;20200;-67
2022/11/20 01:26:56;;;;;;;4.93;3.10;;;2.70;99.90;;;;;;4116560;28;20196;-69
2022/11/20 01:28:58;;;;;;;3.33;2.50;;;2.80;99.90;;;;;;4116611;28;20187;-67
2022/11/20 01:30:59;;;;;;;3.97;3.00;;;2.90;99.90;;;;;;4131256;28;20214;-66
2022/11/20 01:32:59;;;;;;;4.57;2.63;;;2.80;99.90;;;;;;4114466;28;20442;-67
2022/11/20 01:35:00;;;;;;;2.93;2.63;;;2.90;99.90;;;;;;4131329;28;20770;-67
2022/11/20 01:37:01;;;;;;;3.47;2.47;;;2.90;99.90;;;;;;4116192;28;20574;-67
2022/11/20 01:39:12;;;;;;;4.90;2.97;;;3.00;99.90;;;;;;4131501;28;20197;-67
2022/11/20 01:43:35;;;;;;;2.90;2.30;;;3.00;99.90;;;;;;4128591;28;20481;-67
2022/11/20 01:45:57;;;;;;;2.03;1.70;;;3.00;99.90;;;;;;4131375;28;20526;-67
2022/11/20 01:47:57;;;;;;;2.27;2.00;;;3.00;99.90;;;;;;4131205;28;20507;-66
2022/11/20 01:50:23;;;;;;;2.43;1.90;;;3.10;99.90;;;;;;4114919;28;20488;-67
2022/11/20 01:52:34;;;;;;;2.37;1.87;;;3.20;99.90;;;;;;4130915;28;20692;-67
2022/11/20 01:54:52;;;;;;;3.13;2.20;;;3.20;99.90;;;;;;4130751;28;20473;-67
2022/11/20 01:56:56;;;;;;;2.43;2.13;;;3.30;99.90;;;;;;4130873;28;20422;-67
2022/11/20 01:59:01;;;;;;;4.63;2.20;;;3.40;99.90;;;;;;4130919;28;20425;-67
2022/11/20 02:01:03;;;;;;;2.07;1.80;;;3.40;99.90;;;;;;4130975;28;20432;-67
2022/11/20 02:03:09;;;;;;;2.97;1.87;;;3.40;99.90;;;;;;4115137;28;20463;-67
2022/11/20 02:05:50;;;;;;;3.00;2.30;;;3.40;99.90;;;;;;4124016;28;20429;-67
2022/11/20 02:07:52;;;;;;;4.83;2.43;;;3.50;99.90;;;;;;4130194;28;20448;-67
2022/11/20 02:09:53;;;;;;;1.90;1.70;;;3.50;99.90;;;;;;4131020;28;20450;-68
2022/11/20 02:11:55;;;;;;;2.67;2.40;;;3.50;99.90;;;;;;4132090;28;20427;-67
2022/11/20 02:13:55;;;;;;;2.07;1.80;;;3.50;99.90;;;;;;4113683;28;20215;-67
2022/11/20 02:15:56;;;;;;;3.33;2.00;;;3.50;99.90;;;;;;4131841;28;20556;-67
2022/11/20 02:17:57;;;;;;;4.83;2.50;;;3.50;99.90;;;;;;4130717;28;20210;-67
2022/11/20 02:19:58;;;;;;;2.63;2.17;;;3.50;99.90;;;;;;4130162;28;20176;-67
2022/11/20 02:22:38;;;;;;;3.37;2.20;;;3.50;99.90;;;;;;4130938;28;20191;-67
2022/11/20 02:24:39;;;;;;;3.13;2.40;;;3.40;99.90;;;;;;4130144;28;20211;-67
2022/11/20 02:27:07;;;;;;;2.83;2.30;;;3.40;99.90;;;;;;4130711;28;20460;-67
2022/11/20 02:29:08;;;;;;;2.37;2.17;;;3.30;99.90;;;;;;4130382;28;20432;-67
2022/11/20 02:31:08;;;;;;;4.13;2.90;;;3.40;99.90;;;;;;4130467;28;20431;-67
2022/11/20 02:33:09;;;;;;;3.87;2.50;;;3.40;99.90;;;;;;4129557;28;20224;-67
2022/11/20 02:35:30;;;;;;;3.90;2.60;;;3.40;99.90;;;;;;4114221;28;20220;-67
2022/11/20 02:37:34;;;;;;;2.90;2.50;;;3.40;99.90;;;;;;4131756;28;20181;-66
2022/11/20 02:39:35;;;;;;;3.00;2.60;;;3.40;99.90;;;;;;4116832;28;20849;-67
2022/11/20 02:41:37;;;;;;;3.00;2.50;;;3.30;99.90;;;;;;4130281;28;20430;-67
2022/11/20 02:43:38;;;;;;;3.13;2.10;;;3.20;99.90;;;;;;4136734;28;20194;-67
2022/11/20 02:45:38;;;;;;;2.37;2.10;;;3.20;99.90;;;;;;4121131;28;20449;-67
2022/11/20 02:47:39;;;;;;;4.53;2.70;;;3.20;99.90;;;;;;4115916;28;20189;-67
2022/11/20 02:49:40;;;;;;;2.83;2.50;;;3.10;99.90;;;;;;4114203;28;20713;-67
2022/11/20 02:51:40;;;;;;;3.77;2.33;;;3.00;99.90;;;;;;4114413;28;20244;-67
2022/11/20 02:53:41;;;;;;;3.20;2.20;;;3.00;99.90;;;;;;4113629;28;20229;-66
2022/11/20 02:55:42;;;;;;;3.70;2.60;;;2.80;99.90;;;;;;4130164;28;20251;-67
2022/11/20 02:57:42;;;;;;;4.30;2.40;;;2.80;99.90;;;;;;4114183;28;20181;-67
2022/11/20 02:59:43;;;;;;;5.37;3.17;;;2.60;99.90;;;;;;4114296;28;20777;-67
2022/11/20 03:01:44;;;;;;;4.50;2.87;;;2.60;99.90;;;;;;4115167;28;20225;-67
2022/11/20 03:03:45;;;;;;;3.27;2.60;;;2.50;99.90;;;;;;4114867;28;20247;-67
2022/11/20 03:05:45;;;;;;;2.87;2.40;;;2.60;99.90;;;;;;4130358;28;20615;-67
2022/11/20 03:07:46;;;;;;;4.53;2.90;;;2.50;99.90;;;;;;4114170;28;20557;-67
2022/11/20 03:09:46;;;;;;;3.80;2.77;;;2.30;99.90;;;;;;4115319;28;20219;-67
2022/11/20 03:11:47;;;;;;;3.53;2.20;;;2.30;99.90;;;;;;4115243;28;20196;-67
2022/11/20 03:13:48;;;;;;;3.37;2.70;;;2.20;99.90;;;;;;4129300;28;20233;-66
2022/11/20 03:15:48;;;;;;;3.47;2.87;;;2.20;99.90;;;;;;4115220;28;20226;-67
2022/11/20 03:17:53;;;;;;;3.03;2.30;;;2.10;99.90;;;;;;4114879;28;20188;-67
2022/11/20 03:19:54;;;;;;;3.50;2.47;;;2.10;99.90;;;;;;4113762;28;20188;-67
2022/11/20 03:21:54;;;;;;;3.47;2.50;;;2.00;99.90;;;;;;4115091;28;20453;-67
2022/11/20 03:23:55;;;;;;;3.03;2.30;;;2.10;99.90;;;;;;4114397;28;20357;-67
2022/11/20 03:25:56;;;;;;;3.97;2.80;;;2.10;99.90;;;;;;4129703;28;20190;-67
2022/11/20 03:27:57;;;;;;;2.90;2.50;;;2.00;99.90;;;;;;4129780;28;20178;-66
2022/11/20 03:29:57;;;;;;;3.10;2.23;;;2.10;99.90;;;;;;4113588;28;20183;-67
2022/11/20 03:31:58;;;;;;;4.47;2.30;;;2.00;99.90;;;;;;4129072;28;20216;-67
2022/11/20 03:33:59;;;;;;;2.80;2.23;;;2.00;99.90;;;;;;4112816;28;20207;-67
2022/11/20 03:36:05;;;;;;;4.23;2.40;;;2.00;99.90;;;;;;4129840;28;20330;-67
2022/11/20 03:38:06;;;;;;;3.53;2.33;;;1.80;99.90;;;;;;4129385;28;20810;-67
2022/11/20 03:40:07;;;;;;;3.30;2.57;;;1.70;99.90;;;;;;4114715;28;20435;-67
2022/11/20 03:42:44;;;;;;;4.00;2.20;;;1.70;99.90;;;;;;4114736;28;20188;-66
2022/11/20 03:44:29;;;;;;;3.60;2.47;;;1.60;99.90;;;;;;4126520;28;20492;-67
2022/11/20 03:46:30;;;;;;;3.73;2.43;;;1.70;99.90;;;;;;4129648;28;20926;-67
2022/11/20 03:48:31;;;;;;;4.17;2.40;;;1.70;99.90;;;;;;4113500;28;20604;-68
2022/11/20 03:50:32;;;;;;;3.50;2.13;;;1.80;99.90;;;;;;4113233;28;20254;-67
2022/11/20 03:52:33;;;;;;;3.80;2.20;;;1.90;99.90;;;;;;4114505;28;20845;-67
2022/11/20 03:54:33;;;;;;;2.20;2.00;;;1.90;99.90;;;;;;4119719;28;20592;-67
2022/11/20 03:56:37;;;;;;;2.77;2.00;;;1.80;99.90;;;;;;4129247;28;20202;-67
2022/11/20 03:58:40;;;;;;;4.17;2.67;;;1.80;99.90;;;;;;4129379;28;20197;-68
2022/11/20 04:00:41;;;;;;;3.87;2.03;;;1.90;99.90;;;;;;4130466;28;20430;-67
2022/11/20 04:02:42;;;;;;;6.33;2.40;;;1.90;99.90;;;;;;4128330;28;20441;-69
2022/11/20 04:04:42;;;;;;;2.87;1.97;;;1.90;99.90;;;;;;4130659;28;20208;-67
2022/11/20 04:06:43;;;;;;;3.67;1.80;;;1.90;99.90;;;;;;4130037;28;20240;-67
2022/11/20 04:08:44;;;;;;;3.73;2.00;;;2.00;99.90;;;;;;4129007;28;20187;-67
2022/11/20 04:10:45;;;;;;;4.10;2.30;;;2.00;99.90;;;;;;4127805;28;20198;-67
2022/11/20 04:12:45;;;;;;;2.90;2.33;;;2.10;99.90;;;;;;4129660;28;20556;-69
2022/11/20 04:14:46;;;;;;;3.07;2.00;;;2.10;99.90;;;;;;4130428;28;20649;-67
2022/11/20 04:16:47;;;;;;;4.30;2.23;;;2.10;99.90;;;;;;4130387;28;20178;-67
2022/11/20 04:18:53;;;;;;;3.37;2.83;;;2.20;99.90;;;;;;4129030;28;20271;-67
2022/11/20 04:20:53;;;;;;;3.00;2.50;;;2.20;99.90;;;;;;4129161;28;20183;-67
2022/11/20 04:22:54;;;;;;;3.50;2.50;;;2.30;99.90;;;;;;4129664;28;20434;-67
2022/11/20 04:24:55;;;;;;;2.70;2.00;;;2.20;99.90;;;;;;4130129;28;20188;-67
2022/11/20 04:26:55;;;;;;;2.10;1.73;;;2.50;99.90;;;;;;4130591;28;20862;-67
2022/11/20 04:28:57;;;;;;;3.70;2.30;;;2.60;99.90;;;;;;4128876;28;20567;-68
2022/11/20 04:31:10;;;;;;;2.77;2.00;;;2.60;99.90;;;;;;4129016;28;20208;-67
2022/11/20 04:33:11;;;;;;;3.10;2.00;;;2.70;99.90;;;;;;4128328;28;20452;-67
2022/11/20 04:35:12;;;;;;;2.57;2.10;;;2.90;99.90;;;;;;4130315;28;20501;-67
2022/11/20 04:37:13;;;;;;;2.37;2.03;;;3.00;99.90;;;;;;4123115;28;20789;-67
2022/11/20 04:39:15;;;;;;;2.73;2.40;;;3.00;99.90;;;;;;4128740;28;20839;-67
2022/11/20 04:41:19;;;;;;;2.70;2.37;;;3.10;99.90;;;;;;4128940;28;20225;-67
2022/11/20 04:43:19;;;;;;;3.07;2.43;;;3.00;99.90;;;;;;4114875;28;21155;-67
2022/11/20 04:45:22;;;;;;;2.90;2.13;;;3.10;99.90;;;;;;4131987;28;20441;-67
2022/11/20 04:47:23;;;;;;;4.43;2.30;;;3.00;99.90;;;;;;4137970;28;20183;-67
2022/11/20 04:49:23;;;;;;;2.50;2.10;;;3.00;99.90;;;;;;4122978;28;20436;-67
2022/11/20 04:51:24;;;;;;;4.93;2.37;;;3.10;99.90;;;;;;4132330;28;20928;-67
2022/11/20 04:53:25;;;;;;;2.73;2.23;;;3.10;99.90;;;;;;4115739;28;20693;-67
2022/11/20 04:55:25;;;;;;;3.07;2.60;;;3.10;99.90;;;;;;4131943;28;20211;-67
2022/11/20 04:57:26;;;;;;;3.60;2.57;;;3.10;99.90;;;;;;4117441;28;20191;-67
2022/11/20 04:59:27;;;;;;;2.23;2.03;;;3.00;99.90;;;;;;4132955;28;20187;-68
2022/11/20 05:01:27;;;;;;;4.60;2.37;;;3.00;99.90;;;;;;4116205;28;20685;-68
2022/11/20 05:03:28;;;;;;;4.23;2.83;;;3.10;99.90;;;;;;4131416;28;20309;-68
2022/11/20 05:05:29;;;;;;;2.90;2.23;;;3.00;99.90;;;;;;4115982;28;20201;-67
2022/11/20 05:07:30;;;;;;;2.93;2.43;;;2.80;99.90;;;;;;4133161;28;20197;-67
2022/11/20 05:09:31;;;;;;;4.67;2.60;;;3.00;99.90;;;;;;4117753;28;20230;-67
2022/11/20 05:11:32;;;;;;;3.77;2.77;;;3.00;99.90;;;;;;4117887;28;20252;-67
2022/11/20 05:13:33;;;;;;;3.33;2.40;;;3.10;99.90;;;;;;4117506;28;20448;-67
2022/11/20 05:15:33;;;;;;;3.13;2.20;;;3.20;99.90;;;;;;4132316;28;20873;-67
2022/11/20 05:17:34;;;;;;;2.10;1.60;;;3.10;99.90;;;;;;4117626;28;20555;-69
2022/11/20 05:19:35;;;;;;;1.80;1.70;;;2.90;99.90;;;;;;4117860;28;20543;-67
2022/11/20 05:21:35;;;;;;;2.10;1.63;;;2.90;99.90;;;;;;4117464;28;20190;-67
2022/11/20 05:23:36;;;;;;;1.57;1.33;;;2.90;99.90;;;;;;4116927;28;20202;-67
2022/11/20 05:25:37;;;;;;;2.33;1.27;;;3.00;99.90;;;;;;4132101;28;20225;-67
2022/11/20 05:27:38;;;;;;;1.70;1.47;;;3.00;99.90;;;;;;4117230;28;20190;-67
2022/11/20 05:29:38;;;;;;;1.20;1.10;;;3.10;99.90;;;;;;4117452;28;20189;-67
2022/11/20 05:31:40;;;;;;;3.13;1.90;;;3.00;99.90;;;;;;4117079;28;20189;-67
2022/11/20 05:33:43;;;;;;;2.47;1.93;;;3.00;99.90;;;;;;4131574;28;20932;-68
2022/11/20 05:35:44;;;;;;;2.43;1.83;;;3.10;99.90;;;;;;4116051;28;20867;-67
2022/11/20 05:37:44;;;;;;;2.60;2.00;;;3.20;99.90;;;;;;4117208;28;20479;-67
2022/11/20 05:39:45;;;;;;;2.97;1.97;;;3.20;99.90;;;;;;4131825;28;20272;-67
2022/11/20 05:41:46;;;;;;;3.77;2.50;;;3.10;99.90;;;;;;4115541;28;20656;-67
2022/11/20 05:43:49;;;;;;;3.57;2.10;;;3.10;99.90;;;;;;4130601;28;20704;-67
2022/11/20 05:45:54;;;;;;;2.03;1.60;;;3.00;99.90;;;;;;4131105;28;20184;-67
2022/11/20 05:48:00;;;;;;;3.27;1.83;;;3.00;99.90;;;;;;4116203;28;20868;-67
2022/11/20 05:50:02;;;;;;;1.40;1.30;;;2.90;99.90;;;;;;4131353;28;20419;-67
2022/11/20 05:52:02;;;;;;;2.20;1.30;;;2.80;99.90;;;;;;4131223;28;20462;-67
2022/11/20 05:54:03;;;;;;;1.30;1.20;;;2.70;99.90;;;;;;4129978;28;20459;-67
2022/11/20 05:56:11;;;;;;;1.60;1.40;;;2.60;99.90;;;;;;4115991;28;20196;-67
2022/11/20 05:58:12;;;;;;;1.87;1.60;;;2.70;99.90;;;;;;4131067;28;20193;-67
2022/11/20 06:00:13;;;;;;;1.67;1.53;;;2.80;99.90;;;;;;4116213;28;20419;-68
2022/11/20 06:02:14;;;;;;;2.20;1.80;;;2.80;99.90;;;;;;4115530;28;20221;-67
2022/11/20 06:04:15;;;;;;;2.10;1.90;;;2.90;99.90;;;;;;4121101;28;20842;-68
2022/11/20 06:06:17;;;;;;;3.00;2.00;;;3.10;99.90;;;;;;4132083;28;20593;-68
2022/11/20 06:08:18;;;;;;;2.10;1.80;;;3.20;99.90;;;;;;4124874;28;20171;-67
2022/11/20 06:10:18;;;;;;;3.20;2.33;;;3.30;99.90;;;;;;4132058;28;20459;-67
2022/11/20 06:12:19;;;;;;;3.97;3.37;;;3.30;99.90;;;;;;4131917;28;20189;-67
2022/11/20 06:14:19;;;;;;;4.27;3.33;;;3.20;99.90;;;;;;4130051;28;20221;-69
2022/11/20 06:16:21;;;;;;;4.83;3.63;;;3.30;99.90;;;;;;4130543;28;20565;-67
2022/11/20 06:18:22;;;;;;;4.10;3.23;;;3.50;99.90;;;;;;4131649;28;20236;-66
2022/11/20 06:20:22;;;;;;;5.97;4.70;;;3.50;99.90;;;;;;4130138;28;20936;-67
2022/11/20 06:22:23;;;;;;;3.57;2.63;;;3.50;99.90;;;;;;4131422;28;20571;-67
2022/11/20 06:24:25;;;;;;;2.57;2.10;;;3.50;99.90;;;;;;4129806;28;20748;-67
2022/11/20 06:26:27;;;;;;;2.33;1.80;;;3.40;99.90;;;;;;4129996;28;20181;-66
2022/11/20 06:28:28;;;;;;;5.47;2.20;;;3.60;99.90;;;;;;4131338;28;20442;-67
2022/11/20 06:30:28;;;;;;;3.37;2.47;;;3.70;99.90;;;;;;4130065;28;21084;-67
2022/11/20 06:32:29;;;;;;;6.47;3.43;;;3.80;99.90;;;;;;4131323;28;20197;-67
2022/11/20 06:34:30;;;;;;;4.03;3.27;;;3.80;99.90;;;;;;4100714;28;20214;-67
2022/11/20 06:36:30;;;;;;;4.00;2.13;;;3.80;99.90;;;;;;4115197;28;20717;-67
2022/11/20 06:38:31;;;;;;;3.73;2.77;;;3.80;99.90;;;;;;4115163;28;20205;-67
2022/11/20 06:40:32;;;;;;;3.43;2.50;;;3.90;99.90;;;;;;4114966;28;20178;-68
2022/11/20 06:42:32;;;;;;;3.47;2.60;;;3.90;99.90;;;;;;4129671;28;20551;-68
2022/11/20 06:44:33;;;;;;;3.03;2.10;;;3.90;99.90;;;;;;4113541;28;20224;-68
2022/11/20 06:46:34;;;;;;;3.83;1.97;;;3.80;99.90;;;;;;4113666;28;20189;-67
2022/11/20 06:48:34;;;;;;;3.00;2.20;;;3.80;99.90;;;;;;4113536;28;20197;-67
2022/11/20 06:50:37;;;;;;;2.30;1.87;;;3.90;99.90;;;;;;4115698;28;20682;-67
2022/11/20 06:52:38;;;;;;;2.53;2.07;;;3.90;99.90;;;;;;4119988;28;20194;-67
2022/11/20 06:54:38;;;;;;;3.73;2.90;;;4.00;99.90;;;;;;4116040;28;20535;-67
2022/11/20 06:56:39;;;;;;;2.00;1.70;;;4.00;99.90;;;;;;4115643;28;20189;-66
2022/11/20 06:58:40;;;;;;;1.60;1.37;;;3.90;99.90;;;;;;4115187;28;20272;-66
2022/11/20 07:00:40;;;;;;;2.40;1.90;;;4.00;99.90;;;;;;4114940;28;20189;-66
2022/11/20 07:02:41;;;;;;;1.30;1.20;;;4.10;99.90;;;;;;4113093;28;20210;-66
2022/11/20 07:04:42;;;;;;;2.60;1.30;;;4.10;99.90;;;;;;4114581;28;20623;-67
2022/11/20 07:06:42;;;;;;;1.90;1.10;;;4.10;99.90;;;;;;4115008;28;20548;-67
2022/11/20 07:08:43;;;;;;;1.37;1.17;;;4.00;99.90;;;;;;4114705;28;20304;-67
2022/11/20 07:10:44;;;;;;;1.50;1.20;;;3.90;99.90;;;;;;4129469;28;20761;-67
2022/11/20 07:12:50;;;;;;;2.13;1.70;;;3.90;99.90;;;;;;4114164;28;20529;-67
2022/11/20 07:14:51;;;;;;;2.07;1.60;;;3.90;99.90;;;;;;4114625;28;20240;-67
2022/11/20 07:16:51;;;;;;;7.17;3.67;;;3.90;99.90;;;;;;4114556;28;20433;-68
2022/11/20 07:18:52;;;;;;;3.43;2.03;;;3.80;99.90;;;;;;4113457;28;20183;-67
2022/11/20 07:20:53;;;;;;;2.67;1.63;;;3.80;99.90;;;;;;4114513;28;20180;-67
2022/11/20 07:22:55;;;;;;;2.53;2.03;;;3.90;99.90;;;;;;4112628;28;20193;-67
2022/11/20 07:24:56;;;;;;;3.70;1.80;;;3.90;99.90;;;;;;4113383;28;20609;-67
2022/11/20 07:26:56;;;;;;;1.50;1.10;;;4.10;99.90;;;;;;4114307;28;20442;-67
2022/11/20 07:28:57;;;;;;;0.87;0.80;;;4.30;99.90;;;;;;4114561;28;20190;-66
2022/11/20 07:30:58;;;;;;;1.40;1.20;;;4.40;99.90;;;;;;4114274;28;20259;-67
2022/11/20 07:32:59;;;;;;;1.37;1.00;;;4.40;99.90;;;;;;4128147;28;20189;-67
2022/11/20 07:34:59;;;;;;;1.27;1.00;;;4.50;99.90;;;;;;4130527;28;20648;-67
2022/11/20 07:37:00;;;;;;;1.30;1.20;;;4.60;99.90;;;;;;4130397;28;20268;-67
2022/11/20 07:39:01;;;;;;;2.70;1.27;;;4.70;99.90;;;;;;4129103;28;20182;-68
2022/11/20 07:41:01;;;;;;;1.30;0.80;;;4.70;99.90;;;;;;4130170;28;20178;-67
2022/11/20 07:43:02;;;;;;;0.80;0.80;;;4.60;99.90;;;;;;4128304;28;20953;-67
2022/11/20 07:45:03;;;;;;;1.20;1.10;;;4.60;99.90;;;;;;4130442;28;20197;-67
2022/11/20 07:47:04;;;;;;;1.10;1.00;;;4.60;99.90;;;;;;4130231;28;20692;-67
2022/11/20 07:49:05;;;;;;;0.80;0.80;;;4.60;99.90;;;;;;4130272;28;20429;-67
2022/11/20 07:51:05;;;;;;;1.33;1.23;;;4.70;99.90;;;;;;4130250;28;20186;-67
2022/11/20 07:53:06;;;;;;;1.00;0.80;;;4.80;99.90;;;;;;4129454;28;20248;-67
2022/11/20 07:55:08;;;;;;;0.90;0.90;;;4.80;99.90;;;;;;4130460;28;20237;-67
2022/11/20 07:57:09;;;;;;;1.30;1.00;;;4.70;99.90;;;;;;4128932;28;20298;-66
2022/11/20 07:59:11;;;;;;;1.20;0.90;;;4.50;99.90;;;;;;4129102;28;20460;-66
2022/11/20 08:01:12;;;;;;;1.70;1.20;;;4.30;99.90;;;;;;4129183;28;20187;-67
2022/11/20 08:03:13;;;;;;;1.23;0.90;;;4.40;99.90;;;;;;4129196;28;20483;-67
2022/11/20 08:05:13;;;;;;;1.77;1.63;;;4.50;99.90;;;;;;4130095;28;20618;-67
2022/11/20 08:07:14;;;;;;;1.60;1.20;;;4.50;99.90;;;;;;4129056;28;20194;-66
2022/11/20 08:09:15;;;;;;;1.10;1.00;;;4.60;99.90;;;;;;4128875;28;20190;-66
2022/11/20 08:15:53;;;;;;;1.67;1.23;;;4.50;99.90;;;;;;4130123;28;20553;-66
2022/11/20 08:18:06;;;;;;;1.90;1.37;;;4.70;99.90;;;;;;4129543;28;20433;-67
2022/11/20 08:20:08;;;;;;;1.80;1.23;;;4.90;99.90;;;;;;4130116;28;20654;-67
2022/11/20 08:22:08;;;;;;;1.83;1.30;;;5.20;99.90;;;;;;4128749;28;20425;-67
2022/11/20 08:24:10;;;;;;;3.23;2.07;;;5.40;99.90;;;;;;4129144;28;20507;-67
2022/11/20 08:26:11;;;;;;;3.27;1.80;;;5.40;99.90;;;;;;4129874;28;20174;-67
2022/11/20 08:28:12;;;;;;;3.80;2.40;;;5.40;99.90;;;;;;4129889;28;20441;-66
2022/11/20 08:30:13;;;;;;;3.80;1.93;;;5.50;99.90;;;;;;4129698;28;20179;-67
2022/11/20 08:32:14;;;;;;;5.63;3.33;;;5.50;99.90;;;;;;4128618;28;20697;-67
2022/11/20 08:34:14;;;;;;;4.30;2.77;;;5.30;99.90;;;;;;4129210;28;20477;-66
2022/11/20 08:36:16;;;;;;;4.50;3.43;;;5.30;99.90;;;;;;4125327;28;20175;-67
2022/11/20 08:38:16;;;;;;;2.43;1.70;;;5.30;99.90;;;;;;4128614;28;20261;-68
2022/11/20 08:40:17;;;;;;;2.40;2.07;;;5.20;99.90;;;;;;4113761;28;20938;-68
2022/11/20 08:42:18;;;;;;;2.47;1.90;;;5.00;99.90;;;;;;4114171;28;20212;-67
2022/11/20 08:44:18;;;;;;;5.77;2.87;;;5.10;99.90;;;;;;4113178;28;20207;-68
2022/11/20 08:46:19;;;;;;;3.27;2.60;;;5.20;99.90;;;;;;4113591;28;20218;-68
2022/11/20 08:48:20;;;;;;;2.87;2.07;;;5.30;99.90;;;;;;4128652;28;20190;-68
2022/11/20 08:50:21;;;;;;;1.83;1.37;;;5.40;99.90;;;;;;4113494;28;20423;-67
2022/11/20 08:52:21;;;;;;;2.20;1.73;;;5.50;99.90;;;;;;4112185;28;20210;-67
2022/11/20 08:54:22;;;;;;;2.87;1.70;;;5.40;99.90;;;;;;4113033;28;20722;-67
2022/11/20 08:56:23;;;;;;;1.63;1.13;;;5.10;99.90;;;;;;4117767;28;20621;-68
2022/11/20 08:58:24;;;;;;;2.17;1.03;;;5.10;99.90;;;;;;4133765;28;20183;-68
2022/11/20 09:00:25;;;;;;;1.20;0.80;;;5.00;99.90;;;;;;4115905;28;20550;-67
2022/11/20 09:02:26;;;;;;;0.60;0.60;;;5.00;99.90;;;;;;4114114;28;20449;-68
2022/11/20 09:04:27;;;;;;;0.83;0.83;;;5.00;99.90;;;;;;4113254;28;20962;-67
2022/11/20 09:06:28;;;;;;;0.90;0.90;;;5.00;99.90;;;;;;4113717;28;20183;-68
2022/11/20 09:08:29;;;;;;;0.80;0.80;;;5.10;99.90;;;;;;4113911;28;20183;-68
2022/11/20 09:10:30;;;;;;;3.80;1.07;;;5.00;99.90;;;;;;4113776;28;20245;-67
2022/11/20 09:12:30;;;;;;;1.27;1.00;;;5.00;99.90;;;;;;4128516;28;21025;-67
2022/11/20 09:14:31;;;;;;;2.93;1.60;;;5.00;99.90;;;;;;4112884;28;20294;-68
2022/11/20 09:16:32;;;;;;;6.70;3.63;;;4.90;99.90;;;;;;4113773;28;20171;-67
2022/11/20 09:18:35;;;;;;;1.80;1.57;;;4.90;99.90;;;;;;4128581;28;20182;-67
2022/11/20 09:20:36;;;;;;;3.63;2.30;;;4.80;99.90;;;;;;4112353;28;20637;-67
2022/11/20 09:22:40;;;;;;;2.00;1.20;;;4.70;99.90;;;;;;4113307;28;20513;-67
2022/11/20 09:24:42;;;;;;;4.47;1.70;;;4.60;99.90;;;;;;4128150;28;20206;-67
2022/11/20 09:26:43;;;;;;;3.20;1.63;;;4.40;99.90;;;;;;4113514;28;21088;-67
2022/11/20 09:28:44;;;;;;;1.77;0.90;;;4.10;99.90;;;;;;4113445;28;20410;-67
2022/11/20 09:30:44;;;;;;;1.53;1.13;;;4.00;99.90;;;;;;4115381;28;20217;-67
2022/11/20 09:32:45;;;;;;;1.27;1.17;;;4.10;99.90;;;;;;4130622;28;20201;-66
2022/11/20 09:34:46;;;;;;;2.50;2.07;;;4.20;99.90;;;;;;4116096;28;20207;-67
2022/11/20 09:36:46;;;;;;;4.40;1.40;;;4.10;99.90;;;;;;4116259;28;20179;-67
2022/11/20 09:38:47;;;;;;;0.90;0.90;;;4.10;99.90;;;;;;4116330;28;20188;-66
2022/11/20 09:41:04;;;;;;;1.30;1.20;;;4.20;99.90;;;;;;4131187;28;20179;-67
2022/11/20 09:43:19;;;;;;;1.10;1.00;;;4.30;99.90;;;;;;4116990;28;20867;-68
2022/11/20 09:45:55;;;;;;;0.97;0.90;;;4.30;99.90;;;;;;4118434;28;20808;-68
2022/11/20 09:48:20;;;;;;;4.13;3.10;;;4.30;99.90;;;;;;4130834;28;20959;-68
2022/11/20 09:50:50;;;;;;;0.87;0.80;;;4.40;99.90;;;;;;4130902;28;20844;-69
2022/11/20 09:53:15;;;;;;;1.20;1.10;;;4.30;99.90;;;;;;4114112;28;20429;-65
2022/11/20 09:55:16;;;;;;;3.03;2.40;;;4.40;99.90;;;;;;4116142;28;20466;-68
2022/11/20 09:57:36;;;;;;;1.60;1.50;;;4.30;99.90;;;;;;4130950;28;20425;-68
2022/11/20 10:00:10;;;;;;;7.60;3.83;;;4.40;99.90;;;;;;4115912;28;20411;-68
2022/11/20 10:02:27;;;;;;;3.60;2.03;;;4.50;99.90;;;;;;4110706;28;20473;-67
2022/11/20 10:04:32;;;;;;;0.80;0.80;;;4.40;99.90;;;;;;4129805;28;20448;-68
2022/11/20 10:06:53;;;;;;;1.10;1.00;;;4.30;99.90;;;;;;4130490;28;20572;-68
2022/11/20 10:09:16;;;;;;;1.50;1.40;;;4.20;99.90;;;;;;4130224;28;20445;-68
2022/11/20 10:11:48;;;;;;;1.33;1.20;;;4.20;99.90;;;;;;4115524;28;20800;-67
2022/11/20 10:14:07;;;;;;;2.10;1.40;;;4.10;99.90;;;;;;4128961;28;20549;-67
2022/11/20 10:16:51;;;;;;;2.20;1.77;;;4.20;99.90;;;;;;4131601;28;20418;-68
2022/11/20 10:19:33;;;;;;;1.83;1.10;;;4.20;99.90;;;;;;4130436;28;20948;-67
2022/11/20 10:22:09;;;;;;;1.60;1.50;;;4.30;99.90;;;;;;4131491;28;20421;-68
2022/11/20 10:24:47;;;;;;;1.23;1.10;;;4.00;99.90;;;;;;4130686;28;20456;-67
2022/11/20 10:27:19;;;;;;;1.57;1.40;;;3.90;99.90;;;;;;4131406;28;20481;-68
2022/11/20 10:29:33;;;;;;;1.30;1.20;;;4.20;99.90;;;;;;4131122;28;20444;-67
2022/11/20 10:31:38;;;;;;;1.30;1.20;;;4.40;99.90;;;;;;4130268;28;20809;-67
2022/11/20 10:33:45;;;;;;;1.83;1.27;;;4.40;99.90;;;;;;4129402;28;20492;-67
2022/11/20 10:36:16;;;;;;;5.50;1.63;;;4.40;99.90;;;;;;4130011;28;20465;-68
2022/11/20 10:38:23;;;;;;;2.63;1.63;;;4.50;99.90;;;;;;4131156;28;20414;-68
2022/11/20 10:40:48;;;;;;;3.57;2.20;;;4.70;99.90;;;;;;4129511;28;20535;-68
2022/11/20 10:43:02;;;;;;;2.17;1.53;;;4.90;99.90;;;;;;4112895;28;20422;-68
2022/11/20 10:45:25;;;;;;;2.20;1.47;;;4.80;99.90;;;;;;4115195;28;20887;-67
2022/11/20 10:47:30;;;;;;;1.60;1.50;;;4.80;99.90;;;;;;4113818;28;20434;-67
2022/11/20 10:49:32;;;;;;;2.83;1.73;;;4.80;99.90;;;;;;4113600;28;20423;-68
2022/11/20 10:51:48;;;;;;;2.27;1.30;;;5.10;99.90;;;;;;4113606;28;21292;-67
2022/11/20 10:54:18;;;;;;;1.50;1.40;;;5.40;99.90;;;;;;4114312;28;20536;-67
2022/11/20 10:56:41;;;;;;;1.67;1.20;;;5.40;99.90;;;;;;4113526;28;20501;-67
2022/11/20 10:59:26;;;;;;;2.63;1.40;;;5.30;99.90;;;;;;4129663;28;20452;-67
2022/11/20 11:01:27;;;;;;;3.10;1.93;;;4.90;99.90;;;;;;4116304;28;20957;-67
2022/11/20 11:03:30;;;;;;;2.27;1.67;;;4.80;99.90;;;;;;4118572;28;20557;-67